sensor_id;sensor_type;location;lat;lon;timestamp;P1;durP1;ratioP1;P2;durP2;ratioP2
41799;SDS011;27468;47.460;19.034;2023-07-09T00:02:11;4.22;;;3.35;;
41799;SDS011;27468;47.460;19.034;2023-07-09T00:04:37;3.80;;;3.17;;
41799;SDS011;27468;47.460;19.034;2023-07-09T00:07:03;4.47;;;3.33;;
41799;SDS011;27468;47.460;19.034;2023-07-09T00:09:29;4.60;;;3.60;;
41799;SDS011;27468;47.460;19.034;2023-07-09T00:11:55;5.15;;;3.47;;
41799;SDS011;27468;47.460;19.034;2023-07-09T00:14:21;4.85;;;3.47;;
41799;SDS011;27468;47.460;19.034;2023-07-09T00:16:47;4.82;;;3.30;;
41799;SDS011;27468;47.460;19.034;2023-07-09T00:19:17;4.13;;;3.25;;
41799;SDS011;27468;47.460;19.034;2023-07-09T00:21:45;4.90;;;3.40;;
41799;SDS011;27468;47.460;19.034;2023-07-09T00:24:13;4.82;;;3.00;;
41799;SDS011;27468;47.460;19.034;2023-07-09T00:26:38;3.83;;;3.30;;
41799;SDS011;27468;47.460;19.034;2023-07-09T00:29:15;3.92;;;3.40;;
41799;SDS011;27468;47.460;19.034;2023-07-09T00:31:41;4.05;;;3.10;;
41799;SDS011;27468;47.460;19.034;2023-07-09T00:34:08;5.53;;;3.40;;
41799;SDS011;27468;47.460;19.034;2023-07-09T00:36:37;4.13;;;3.30;;
41799;SDS011;27468;47.460;19.034;2023-07-09T00:39:03;5.43;;;3.38;;
41799;SDS011;27468;47.460;19.034;2023-07-09T00:41:36;5.18;;;3.50;;
41799;SDS011;27468;47.460;19.034;2023-07-09T00:49:32;4.85;;;3.30;;
41799;SDS011;27468;47.460;19.034;2023-07-09T00:52:02;4.60;;;3.50;;
41799;SDS011;27468;47.460;19.034;2023-07-09T00:54:37;5.05;;;3.50;;
41799;SDS011;27468;47.460;19.034;2023-07-09T00:57:15;4.47;;;3.28;;
41799;SDS011;27468;47.460;19.034;2023-07-09T00:59:45;4.88;;;3.33;;
41799;SDS011;27468;47.460;19.034;2023-07-09T01:02:14;5.75;;;3.78;;
41799;SDS011;27468;47.460;19.034;2023-07-09T01:04:40;5.18;;;3.40;;
41799;SDS011;27468;47.460;19.034;2023-07-09T01:07:06;4.30;;;2.85;;
41799;SDS011;27468;47.460;19.034;2023-07-09T01:09:33;5.10;;;3.38;;
41799;SDS011;27468;47.460;19.034;2023-07-09T01:12:05;4.32;;;3.40;;
41799;SDS011;27468;47.460;19.034;2023-07-09T01:14:33;5.47;;;3.30;;
41799;SDS011;27468;47.460;19.034;2023-07-09T01:17:01;4.47;;;3.47;;
41799;SDS011;27468;47.460;19.034;2023-07-09T01:19:35;4.00;;;3.60;;
41799;SDS011;27468;47.460;19.034;2023-07-09T01:22:08;4.80;;;3.50;;
41799;SDS011;27468;47.460;19.034;2023-07-09T01:27:42;6.82;;;3.88;;
41799;SDS011;27468;47.460;19.034;2023-07-09T01:30:17;4.97;;;3.42;;
41799;SDS011;27468;47.460;19.034;2023-07-09T01:32:47;4.25;;;3.33;;
41799;SDS011;27468;47.460;19.034;2023-07-09T01:35:18;5.90;;;3.58;;
41799;SDS011;27468;47.460;19.034;2023-07-09T01:37:45;4.70;;;3.63;;
41799;SDS011;27468;47.460;19.034;2023-07-09T01:40:12;5.35;;;3.67;;
41799;SDS011;27468;47.460;19.034;2023-07-09T01:42:39;3.83;;;3.15;;
41799;SDS011;27468;47.460;19.034;2023-07-09T01:45:06;5.43;;;3.72;;
41799;SDS011;27468;47.460;19.034;2023-07-09T01:47:32;6.88;;;3.67;;
41799;SDS011;27468;47.460;19.034;2023-07-09T01:49:58;4.25;;;3.38;;
41799;SDS011;27468;47.460;19.034;2023-07-09T01:52:26;5.10;;;3.35;;
41799;SDS011;27468;47.460;19.034;2023-07-09T01:54:54;5.25;;;3.83;;
41799;SDS011;27468;47.460;19.034;2023-07-09T01:57:21;4.72;;;3.35;;
41799;SDS011;27468;47.460;19.034;2023-07-09T01:59:54;5.78;;;3.83;;
41799;SDS011;27468;47.460;19.034;2023-07-09T02:02:20;4.03;;;3.13;;
41799;SDS011;27468;47.460;19.034;2023-07-09T02:04:47;5.00;;;3.40;;
41799;SDS011;27468;47.460;19.034;2023-07-09T02:07:14;5.30;;;3.78;;
41799;SDS011;27468;47.460;19.034;2023-07-09T02:09:40;4.53;;;3.70;;
41799;SDS011;27468;47.460;19.034;2023-07-09T02:12:06;5.55;;;3.67;;
41799;SDS011;27468;47.460;19.034;2023-07-09T02:14:32;4.40;;;3.50;;
41799;SDS011;27468;47.460;19.034;2023-07-09T02:16:58;5.50;;;3.78;;
41799;SDS011;27468;47.460;19.034;2023-07-09T02:19:23;5.63;;;3.88;;
41799;SDS011;27468;47.460;19.034;2023-07-09T02:21:48;5.35;;;3.78;;
41799;SDS011;27468;47.460;19.034;2023-07-09T02:24:14;5.88;;;3.45;;
41799;SDS011;27468;47.460;19.034;2023-07-09T02:26:39;4.40;;;3.42;;
41799;SDS011;27468;47.460;19.034;2023-07-09T02:29:05;4.63;;;3.40;;
41799;SDS011;27468;47.460;19.034;2023-07-09T02:31:31;4.57;;;3.30;;
41799;SDS011;27468;47.460;19.034;2023-07-09T02:33:58;6.13;;;3.85;;
41799;SDS011;27468;47.460;19.034;2023-07-09T02:36:24;6.95;;;3.45;;
41799;SDS011;27468;47.460;19.034;2023-07-09T02:38:50;5.53;;;3.42;;
41799;SDS011;27468;47.460;19.034;2023-07-09T02:41:16;4.57;;;3.58;;
41799;SDS011;27468;47.460;19.034;2023-07-09T02:43:41;4.05;;;3.10;;
41799;SDS011;27468;47.460;19.034;2023-07-09T02:46:07;3.38;;;3.08;;
41799;SDS011;27468;47.460;19.034;2023-07-09T02:48:32;4.65;;;3.17;;
41799;SDS011;27468;47.460;19.034;2023-07-09T02:50:58;5.25;;;3.35;;
41799;SDS011;27468;47.460;19.034;2023-07-09T02:53:23;5.15;;;3.65;;
41799;SDS011;27468;47.460;19.034;2023-07-09T02:55:49;5.07;;;3.53;;
41799;SDS011;27468;47.460;19.034;2023-07-09T02:58:14;5.63;;;3.22;;
41799;SDS011;27468;47.460;19.034;2023-07-09T03:00:39;4.72;;;3.20;;
41799;SDS011;27468;47.460;19.034;2023-07-09T03:03:05;4.70;;;3.42;;
41799;SDS011;27468;47.460;19.034;2023-07-09T03:05:30;4.72;;;3.33;;
41799;SDS011;27468;47.460;19.034;2023-07-09T03:07:56;4.43;;;3.30;;
41799;SDS011;27468;47.460;19.034;2023-07-09T03:10:21;3.63;;;3.22;;
41799;SDS011;27468;47.460;19.034;2023-07-09T03:12:46;5.53;;;3.80;;
41799;SDS011;27468;47.460;19.034;2023-07-09T03:15:12;5.63;;;3.25;;
41799;SDS011;27468;47.460;19.034;2023-07-09T03:17:38;5.15;;;3.25;;
41799;SDS011;27468;47.460;19.034;2023-07-09T03:20:03;4.47;;;3.38;;
41799;SDS011;27468;47.460;19.034;2023-07-09T03:22:30;4.80;;;3.45;;
41799;SDS011;27468;47.460;19.034;2023-07-09T03:24:55;4.05;;;3.30;;
41799;SDS011;27468;47.460;19.034;2023-07-09T03:27:21;4.60;;;3.45;;
41799;SDS011;27468;47.460;19.034;2023-07-09T03:29:46;4.75;;;3.25;;
41799;SDS011;27468;47.460;19.034;2023-07-09T03:32:11;3.80;;;3.22;;
41799;SDS011;27468;47.460;19.034;2023-07-09T03:34:37;5.13;;;3.47;;
41799;SDS011;27468;47.460;19.034;2023-07-09T03:37:02;4.78;;;3.33;;
41799;SDS011;27468;47.460;19.034;2023-07-09T03:39:28;4.95;;;3.30;;
41799;SDS011;27468;47.460;19.034;2023-07-09T03:41:53;4.40;;;3.22;;
41799;SDS011;27468;47.460;19.034;2023-07-09T03:44:19;5.53;;;3.47;;
41799;SDS011;27468;47.460;19.034;2023-07-09T03:46:44;5.38;;;3.40;;
41799;SDS011;27468;47.460;19.034;2023-07-09T03:49:09;5.00;;;3.35;;
41799;SDS011;27468;47.460;19.034;2023-07-09T03:51:35;5.15;;;3.40;;
41799;SDS011;27468;47.460;19.034;2023-07-09T03:54:00;4.90;;;3.08;;
41799;SDS011;27468;47.460;19.034;2023-07-09T03:56:26;4.53;;;3.30;;
41799;SDS011;27468;47.460;19.034;2023-07-09T03:58:51;4.68;;;3.40;;
41799;SDS011;27468;47.460;19.034;2023-07-09T04:01:16;4.07;;;3.30;;
41799;SDS011;27468;47.460;19.034;2023-07-09T04:03:42;4.78;;;3.50;;
41799;SDS011;27468;47.460;19.034;2023-07-09T04:06:07;4.72;;;3.20;;
41799;SDS011;27468;47.460;19.034;2023-07-09T04:08:33;6.03;;;3.30;;
41799;SDS011;27468;47.460;19.034;2023-07-09T04:10:59;3.70;;;2.60;;
41799;SDS011;27468;47.460;19.034;2023-07-09T04:13:26;5.03;;;2.92;;
41799;SDS011;27468;47.460;19.034;2023-07-09T04:15:53;4.50;;;3.00;;
41799;SDS011;27468;47.460;19.034;2023-07-09T04:18:19;4.35;;;3.03;;
41799;SDS011;27468;47.460;19.034;2023-07-09T04:20:47;3.88;;;3.05;;
41799;SDS011;27468;47.460;19.034;2023-07-09T04:23:14;4.80;;;2.92;;
41799;SDS011;27468;47.460;19.034;2023-07-09T04:25:39;4.07;;;3.10;;
41799;SDS011;27468;47.460;19.034;2023-07-09T04:28:05;4.43;;;3.33;;
41799;SDS011;27468;47.460;19.034;2023-07-09T04:30:31;4.53;;;3.35;;
41799;SDS011;27468;47.460;19.034;2023-07-09T04:32:56;4.35;;;3.00;;
41799;SDS011;27468;47.460;19.034;2023-07-09T04:35:22;5.63;;;3.33;;
41799;SDS011;27468;47.460;19.034;2023-07-09T04:37:48;4.18;;;3.13;;
41799;SDS011;27468;47.460;19.034;2023-07-09T04:40:14;3.95;;;3.00;;
41799;SDS011;27468;47.460;19.034;2023-07-09T04:42:40;3.47;;;2.50;;
41799;SDS011;27468;47.460;19.034;2023-07-09T04:45:07;3.40;;;3.00;;
41799;SDS011;27468;47.460;19.034;2023-07-09T04:47:33;4.35;;;3.00;;
41799;SDS011;27468;47.460;19.034;2023-07-09T04:49:59;3.50;;;2.92;;
41799;SDS011;27468;47.460;19.034;2023-07-09T04:52:24;3.17;;;2.88;;
41799;SDS011;27468;47.460;19.034;2023-07-09T04:54:50;4.10;;;3.17;;
41799;SDS011;27468;47.460;19.034;2023-07-09T04:57:15;3.53;;;3.15;;
41799;SDS011;27468;47.460;19.034;2023-07-09T04:59:45;3.55;;;2.90;;
41799;SDS011;27468;47.460;19.034;2023-07-09T05:02:11;4.70;;;3.47;;
41799;SDS011;27468;47.460;19.034;2023-07-09T05:04:37;5.35;;;3.58;;
41799;SDS011;27468;47.460;19.034;2023-07-09T05:07:02;3.95;;;3.17;;
41799;SDS011;27468;47.460;19.034;2023-07-09T05:09:27;4.15;;;3.30;;
41799;SDS011;27468;47.460;19.034;2023-07-09T05:11:53;4.38;;;3.65;;
41799;SDS011;27468;47.460;19.034;2023-07-09T05:14:18;5.30;;;3.45;;
41799;SDS011;27468;47.460;19.034;2023-07-09T05:16:44;4.05;;;3.20;;
41799;SDS011;27468;47.460;19.034;2023-07-09T05:19:10;4.32;;;3.35;;
41799;SDS011;27468;47.460;19.034;2023-07-09T05:21:36;4.32;;;3.20;;
41799;SDS011;27468;47.460;19.034;2023-07-09T05:24:01;3.92;;;3.47;;
41799;SDS011;27468;47.460;19.034;2023-07-09T05:26:27;4.38;;;3.63;;
41799;SDS011;27468;47.460;19.034;2023-07-09T05:28:52;5.20;;;3.70;;
41799;SDS011;27468;47.460;19.034;2023-07-09T05:31:18;4.25;;;3.42;;
41799;SDS011;27468;47.460;19.034;2023-07-09T05:33:43;4.18;;;3.50;;
41799;SDS011;27468;47.460;19.034;2023-07-09T05:36:09;3.92;;;3.55;;
41799;SDS011;27468;47.460;19.034;2023-07-09T05:38:41;4.82;;;3.45;;
41799;SDS011;27468;47.460;19.034;2023-07-09T05:41:07;4.20;;;3.28;;
41799;SDS011;27468;47.460;19.034;2023-07-09T05:43:33;3.78;;;3.05;;
41799;SDS011;27468;47.460;19.034;2023-07-09T05:45:58;5.68;;;3.53;;
41799;SDS011;27468;47.460;19.034;2023-07-09T05:48:26;4.10;;;3.50;;
41799;SDS011;27468;47.460;19.034;2023-07-09T05:50:52;4.20;;;3.28;;
41799;SDS011;27468;47.460;19.034;2023-07-09T05:53:20;4.75;;;3.65;;
41799;SDS011;27468;47.460;19.034;2023-07-09T05:55:45;5.10;;;3.45;;
41799;SDS011;27468;47.460;19.034;2023-07-09T05:58:11;4.63;;;3.30;;
41799;SDS011;27468;47.460;19.034;2023-07-09T06:00:36;6.00;;;3.80;;
41799;SDS011;27468;47.460;19.034;2023-07-09T06:03:02;6.07;;;3.70;;
41799;SDS011;27468;47.460;19.034;2023-07-09T06:05:32;4.63;;;3.47;;
41799;SDS011;27468;47.460;19.034;2023-07-09T06:07:58;4.93;;;3.50;;
41799;SDS011;27468;47.460;19.034;2023-07-09T06:10:23;3.53;;;2.95;;
41799;SDS011;27468;47.460;19.034;2023-07-09T06:12:49;3.47;;;2.80;;
41799;SDS011;27468;47.460;19.034;2023-07-09T06:15:15;3.28;;;2.97;;
41799;SDS011;27468;47.460;19.034;2023-07-09T06:17:40;4.55;;;3.35;;
41799;SDS011;27468;47.460;19.034;2023-07-09T06:20:07;4.28;;;3.20;;
41799;SDS011;27468;47.460;19.034;2023-07-09T06:22:33;3.83;;;3.00;;
41799;SDS011;27468;47.460;19.034;2023-07-09T06:24:59;4.43;;;2.90;;
41799;SDS011;27468;47.460;19.034;2023-07-09T06:27:25;3.67;;;2.85;;
41799;SDS011;27468;47.460;19.034;2023-07-09T06:29:50;5.72;;;3.38;;
41799;SDS011;27468;47.460;19.034;2023-07-09T06:32:16;4.05;;;3.08;;
41799;SDS011;27468;47.460;19.034;2023-07-09T06:34:41;3.95;;;3.03;;
41799;SDS011;27468;47.460;19.034;2023-07-09T06:37:07;3.55;;;2.80;;
41799;SDS011;27468;47.460;19.034;2023-07-09T06:39:33;4.07;;;2.80;;
41799;SDS011;27468;47.460;19.034;2023-07-09T06:41:58;3.78;;;3.03;;
41799;SDS011;27468;47.460;19.034;2023-07-09T06:44:23;3.92;;;3.00;;
41799;SDS011;27468;47.460;19.034;2023-07-09T06:46:50;3.38;;;2.75;;
41799;SDS011;27468;47.460;19.034;2023-07-09T06:49:16;3.97;;;2.80;;
41799;SDS011;27468;47.460;19.034;2023-07-09T06:51:41;3.00;;;2.70;;
41799;SDS011;27468;47.460;19.034;2023-07-09T06:54:07;5.03;;;3.28;;
41799;SDS011;27468;47.460;19.034;2023-07-09T06:56:33;5.45;;;3.47;;
41799;SDS011;27468;47.460;19.034;2023-07-09T06:58:59;3.10;;;2.75;;
41799;SDS011;27468;47.460;19.034;2023-07-09T07:01:25;3.85;;;3.00;;
41799;SDS011;27468;47.460;19.034;2023-07-09T07:03:50;3.53;;;2.70;;
41799;SDS011;27468;47.460;19.034;2023-07-09T07:06:16;3.03;;;2.58;;
41799;SDS011;27468;47.460;19.034;2023-07-09T07:08:41;4.95;;;2.58;;
41799;SDS011;27468;47.460;19.034;2023-07-09T07:11:07;2.83;;;2.42;;
41799;SDS011;27468;47.460;19.034;2023-07-09T07:13:33;4.05;;;2.67;;
41799;SDS011;27468;47.460;19.034;2023-07-09T07:16:01;4.40;;;2.85;;
41799;SDS011;27468;47.460;19.034;2023-07-09T07:18:27;3.30;;;2.50;;
41799;SDS011;27468;47.460;19.034;2023-07-09T07:20:53;2.60;;;2.20;;
41799;SDS011;27468;47.460;19.034;2023-07-09T07:23:19;6.00;;;3.42;;
41799;SDS011;27468;47.460;19.034;2023-07-09T07:25:45;2.97;;;2.40;;
41799;SDS011;27468;47.460;19.034;2023-07-09T07:28:11;2.80;;;2.58;;
41799;SDS011;27468;47.460;19.034;2023-07-09T07:30:37;2.92;;;2.55;;
41799;SDS011;27468;47.460;19.034;2023-07-09T07:33:02;4.15;;;2.78;;
41799;SDS011;27468;47.460;19.034;2023-07-09T07:35:28;3.22;;;2.50;;
41799;SDS011;27468;47.460;19.034;2023-07-09T07:37:53;3.13;;;2.50;;
41799;SDS011;27468;47.460;19.034;2023-07-09T07:40:19;3.88;;;2.85;;
41799;SDS011;27468;47.460;19.034;2023-07-09T07:42:44;3.55;;;2.30;;
41799;SDS011;27468;47.460;19.034;2023-07-09T07:45:10;2.90;;;2.40;;
41799;SDS011;27468;47.460;19.034;2023-07-09T07:47:36;3.22;;;2.28;;
41799;SDS011;27468;47.460;19.034;2023-07-09T07:50:01;3.10;;;2.28;;
41799;SDS011;27468;47.460;19.034;2023-07-09T07:52:27;3.25;;;2.70;;
41799;SDS011;27468;47.460;19.034;2023-07-09T07:54:53;3.92;;;2.75;;
41799;SDS011;27468;47.460;19.034;2023-07-09T07:57:19;3.85;;;2.42;;
41799;SDS011;27468;47.460;19.034;2023-07-09T07:59:44;3.22;;;2.50;;
41799;SDS011;27468;47.460;19.034;2023-07-09T08:02:11;3.10;;;2.30;;
41799;SDS011;27468;47.460;19.034;2023-07-09T08:04:39;4.45;;;2.60;;
41799;SDS011;27468;47.460;19.034;2023-07-09T08:07:06;3.63;;;2.50;;
41799;SDS011;27468;47.460;19.034;2023-07-09T08:09:35;3.70;;;2.40;;
41799;SDS011;27468;47.460;19.034;2023-07-09T08:12:02;2.72;;;2.30;;
41799;SDS011;27468;47.460;19.034;2023-07-09T08:14:34;3.20;;;2.20;;
41799;SDS011;27468;47.460;19.034;2023-07-09T08:16:59;3.35;;;2.35;;
41799;SDS011;27468;47.460;19.034;2023-07-09T08:19:25;2.90;;;2.40;;
41799;SDS011;27468;47.460;19.034;2023-07-09T08:21:50;3.42;;;2.40;;
41799;SDS011;27468;47.460;19.034;2023-07-09T08:24:16;2.97;;;2.65;;
41799;SDS011;27468;47.460;19.034;2023-07-09T08:26:41;7.60;;;3.30;;
41799;SDS011;27468;47.460;19.034;2023-07-09T08:29:07;4.35;;;2.67;;
41799;SDS011;27468;47.460;19.034;2023-07-09T08:31:32;3.65;;;2.63;;
41799;SDS011;27468;47.460;19.034;2023-07-09T08:33:57;2.90;;;2.20;;
41799;SDS011;27468;47.460;19.034;2023-07-09T08:36:23;3.53;;;2.40;;
41799;SDS011;27468;47.460;19.034;2023-07-09T08:38:48;4.85;;;3.20;;
41799;SDS011;27468;47.460;19.034;2023-07-09T08:41:25;3.17;;;2.28;;
41799;SDS011;27468;47.460;19.034;2023-07-09T08:50:14;2.80;;;2.60;;
41799;SDS011;27468;47.460;19.034;2023-07-09T08:52:44;4.43;;;2.22;;
41799;SDS011;27468;47.460;19.034;2023-07-09T08:55:14;3.20;;;2.20;;
41799;SDS011;27468;47.460;19.034;2023-07-09T08:57:45;3.53;;;2.40;;
41799;SDS011;27468;47.460;19.034;2023-07-09T09:00:18;2.78;;;2.30;;
41799;SDS011;27468;47.460;19.034;2023-07-09T09:03:00;2.40;;;2.20;;
41799;SDS011;27468;47.460;19.034;2023-07-09T09:05:33;3.83;;;2.50;;
41799;SDS011;27468;47.460;19.034;2023-07-09T09:08:11;2.38;;;2.08;;
41799;SDS011;27468;47.460;19.034;2023-07-09T09:10:53;4.30;;;2.55;;
41799;SDS011;27468;47.460;19.034;2023-07-09T09:13:30;3.42;;;2.42;;
41799;SDS011;27468;47.460;19.034;2023-07-09T09:15:56;2.65;;;2.28;;
41799;SDS011;27468;47.460;19.034;2023-07-09T09:18:29;2.50;;;2.30;;
41799;SDS011;27468;47.460;19.034;2023-07-09T09:21:03;3.58;;;2.70;;
41799;SDS011;27468;47.460;19.034;2023-07-09T09:23:39;3.00;;;2.65;;
41799;SDS011;27468;47.460;19.034;2023-07-09T09:26:24;3.72;;;2.78;;
41799;SDS011;27468;47.460;19.034;2023-07-09T09:28:54;2.90;;;2.50;;
41799;SDS011;27468;47.460;19.034;2023-07-09T09:31:20;2.60;;;2.33;;
41799;SDS011;27468;47.460;19.034;2023-07-09T09:33:46;5.00;;;2.80;;
41799;SDS011;27468;47.460;19.034;2023-07-09T09:36:15;2.88;;;2.47;;
41799;SDS011;27468;47.460;19.034;2023-07-09T09:38:44;3.00;;;2.58;;
41799;SDS011;27468;47.460;19.034;2023-07-09T09:41:13;3.25;;;2.47;;
41799;SDS011;27468;47.460;19.034;2023-07-09T09:43:47;3.40;;;2.60;;
41799;SDS011;27468;47.460;19.034;2023-07-09T09:46:16;3.72;;;2.78;;
41799;SDS011;27468;47.460;19.034;2023-07-09T09:48:49;3.20;;;2.40;;
41799;SDS011;27468;47.460;19.034;2023-07-09T09:51:18;3.05;;;2.40;;
41799;SDS011;27468;47.460;19.034;2023-07-09T09:53:48;4.97;;;2.70;;
41799;SDS011;27468;47.460;19.034;2023-07-09T09:56:20;4.05;;;2.70;;
41799;SDS011;27468;47.460;19.034;2023-07-09T09:58:52;2.70;;;2.40;;
41799;SDS011;27468;47.460;19.034;2023-07-09T10:01:19;3.70;;;2.53;;
41799;SDS011;27468;47.460;19.034;2023-07-09T10:03:47;2.80;;;2.50;;
41799;SDS011;27468;47.460;19.034;2023-07-09T10:06:19;3.15;;;2.60;;
41799;SDS011;27468;47.460;19.034;2023-07-09T10:09:01;2.50;;;2.30;;
41799;SDS011;27468;47.460;19.034;2023-07-09T10:11:45;2.50;;;2.22;;
41799;SDS011;27468;47.460;19.034;2023-07-09T10:22:00;2.80;;;2.38;;
41799;SDS011;27468;47.460;19.034;2023-07-09T10:24:35;3.95;;;2.60;;
41799;SDS011;27468;47.460;19.034;2023-07-09T10:27:20;3.90;;;3.25;;
41799;SDS011;27468;47.460;19.034;2023-07-09T10:35:30;2.90;;;2.55;;
41799;SDS011;27468;47.460;19.034;2023-07-09T10:38:15;3.50;;;2.72;;
41799;SDS011;27468;47.460;19.034;2023-07-09T10:40:49;2.97;;;2.50;;
41799;SDS011;27468;47.460;19.034;2023-07-09T10:43:22;2.92;;;2.53;;
41799;SDS011;27468;47.460;19.034;2023-07-09T10:46:12;2.83;;;2.30;;
41799;SDS011;27468;47.460;19.034;2023-07-09T10:48:41;2.95;;;2.40;;
41799;SDS011;27468;47.460;19.034;2023-07-09T10:51:15;2.60;;;2.40;;
41799;SDS011;27468;47.460;19.034;2023-07-09T10:53:45;3.72;;;2.45;;
41799;SDS011;27468;47.460;19.034;2023-07-09T10:56:22;3.80;;;2.70;;
41799;SDS011;27468;47.460;19.034;2023-07-09T11:01:36;2.65;;;2.40;;
41799;SDS011;27468;47.460;19.034;2023-07-09T11:04:16;3.28;;;2.40;;
41799;SDS011;27468;47.460;19.034;2023-07-09T11:06:52;3.35;;;2.67;;
41799;SDS011;27468;47.460;19.034;2023-07-09T11:09:37;3.58;;;2.80;;
41799;SDS011;27468;47.460;19.034;2023-07-09T11:12:14;3.63;;;2.70;;
41799;SDS011;27468;47.460;19.034;2023-07-09T11:14:51;3.17;;;2.63;;
41799;SDS011;27468;47.460;19.034;2023-07-09T11:17:24;3.50;;;2.70;;
41799;SDS011;27468;47.460;19.034;2023-07-09T11:19:56;3.45;;;2.65;;
41799;SDS011;27468;47.460;19.034;2023-07-09T11:22:26;4.40;;;2.55;;
41799;SDS011;27468;47.460;19.034;2023-07-09T11:25:14;3.00;;;2.70;;
41799;SDS011;27468;47.460;19.034;2023-07-09T11:27:52;2.70;;;2.50;;
41799;SDS011;27468;47.460;19.034;2023-07-09T11:30:26;5.00;;;3.08;;
41799;SDS011;27468;47.460;19.034;2023-07-09T11:32:57;2.58;;;2.28;;
41799;SDS011;27468;47.460;19.034;2023-07-09T11:37:52;3.00;;;2.70;;
41799;SDS011;27468;47.460;19.034;2023-07-09T11:40:21;2.90;;;2.60;;
41799;SDS011;27468;47.460;19.034;2023-07-09T11:42:58;2.78;;;2.53;;
41799;SDS011;27468;47.460;19.034;2023-07-09T11:45:28;2.67;;;2.47;;
41799;SDS011;27468;47.460;19.034;2023-07-09T11:50:46;4.10;;;2.80;;
41799;SDS011;27468;47.460;19.034;2023-07-09T11:56:20;2.88;;;2.30;;
41799;SDS011;27468;47.460;19.034;2023-07-09T11:58:50;2.67;;;2.38;;
41799;SDS011;27468;47.460;19.034;2023-07-09T12:01:16;4.13;;;2.33;;
41799;SDS011;27468;47.460;19.034;2023-07-09T12:03:44;2.80;;;2.50;;
41799;SDS011;27468;47.460;19.034;2023-07-09T12:08:51;2.90;;;2.70;;
41799;SDS011;27468;47.460;19.034;2023-07-09T12:13:53;4.15;;;2.28;;
41799;SDS011;27468;47.460;19.034;2023-07-09T12:16:20;3.10;;;2.50;;
41799;SDS011;27468;47.460;19.034;2023-07-09T12:18:47;2.88;;;2.58;;
41799;SDS011;27468;47.460;19.034;2023-07-09T12:21:13;3.28;;;2.80;;
41799;SDS011;27468;47.460;19.034;2023-07-09T12:23:39;4.00;;;2.45;;
41799;SDS011;27468;47.460;19.034;2023-07-09T12:26:05;2.53;;;2.33;;
41799;SDS011;27468;47.460;19.034;2023-07-09T12:28:36;3.85;;;2.88;;
41799;SDS011;27468;47.460;19.034;2023-07-09T12:31:02;3.15;;;2.50;;
41799;SDS011;27468;47.460;19.034;2023-07-09T12:33:27;2.67;;;2.28;;
41799;SDS011;27468;47.460;19.034;2023-07-09T12:36:00;3.28;;;2.80;;
41799;SDS011;27468;47.460;19.034;2023-07-09T12:38:31;3.33;;;2.55;;
41799;SDS011;27468;47.460;19.034;2023-07-09T12:41:06;2.65;;;2.38;;
41799;SDS011;27468;47.460;19.034;2023-07-09T12:43:47;2.92;;;2.60;;
41799;SDS011;27468;47.460;19.034;2023-07-09T12:46:14;2.58;;;2.38;;
41799;SDS011;27468;47.460;19.034;2023-07-09T12:48:40;2.95;;;2.53;;
41799;SDS011;27468;47.460;19.034;2023-07-09T12:51:07;2.40;;;2.20;;
41799;SDS011;27468;47.460;19.034;2023-07-09T12:53:33;3.85;;;2.55;;
41799;SDS011;27468;47.460;19.034;2023-07-09T12:56:01;3.50;;;2.63;;
41799;SDS011;27468;47.460;19.034;2023-07-09T12:58:36;3.53;;;3.00;;
41799;SDS011;27468;47.460;19.034;2023-07-09T13:01:13;2.97;;;2.65;;
41799;SDS011;27468;47.460;19.034;2023-07-09T13:03:41;3.92;;;2.67;;
41799;SDS011;27468;47.460;19.034;2023-07-09T13:06:20;3.17;;;2.70;;
41799;SDS011;27468;47.460;19.034;2023-07-09T13:08:55;3.67;;;2.60;;
41799;SDS011;27468;47.460;19.034;2023-07-09T13:11:23;4.75;;;2.95;;
41799;SDS011;27468;47.460;19.034;2023-07-09T13:13:55;2.65;;;2.40;;
41799;SDS011;27468;47.460;19.034;2023-07-09T13:16:22;3.90;;;2.90;;
41799;SDS011;27468;47.460;19.034;2023-07-09T13:18:47;3.15;;;2.90;;
41799;SDS011;27468;47.460;19.034;2023-07-09T13:21:14;2.85;;;2.60;;
41799;SDS011;27468;47.460;19.034;2023-07-09T13:23:42;5.18;;;3.25;;
41799;SDS011;27468;47.460;19.034;2023-07-09T13:26:08;4.57;;;2.70;;
41799;SDS011;27468;47.460;19.034;2023-07-09T13:28:33;2.50;;;2.28;;
41799;SDS011;27468;47.460;19.034;2023-07-09T13:31:00;4.22;;;3.00;;
41799;SDS011;27468;47.460;19.034;2023-07-09T13:33:33;3.47;;;2.85;;
41799;SDS011;27468;47.460;19.034;2023-07-09T13:35:59;3.88;;;2.70;;
41799;SDS011;27468;47.460;19.034;2023-07-09T13:38:24;2.78;;;2.50;;
41799;SDS011;27468;47.460;19.034;2023-07-09T13:40:57;2.88;;;2.50;;
41799;SDS011;27468;47.460;19.034;2023-07-09T13:45:55;3.20;;;2.65;;
41799;SDS011;27468;47.460;19.034;2023-07-09T13:48:22;4.45;;;2.70;;
41799;SDS011;27468;47.460;19.034;2023-07-09T13:50:49;3.65;;;2.90;;
41799;SDS011;27468;47.460;19.034;2023-07-09T13:53:20;4.20;;;2.92;;
41799;SDS011;27468;47.460;19.034;2023-07-09T13:55:48;3.20;;;2.40;;
41799;SDS011;27468;47.460;19.034;2023-07-09T13:58:16;3.13;;;2.40;;
41799;SDS011;27468;47.460;19.034;2023-07-09T14:00:43;2.70;;;2.50;;
41799;SDS011;27468;47.460;19.034;2023-07-09T14:03:20;2.95;;;2.60;;
41799;SDS011;27468;47.460;19.034;2023-07-09T14:05:48;3.85;;;2.80;;
41799;SDS011;27468;47.460;19.034;2023-07-09T14:08:14;4.97;;;2.80;;
41799;SDS011;27468;47.460;19.034;2023-07-09T14:10:40;3.83;;;2.70;;
41799;SDS011;27468;47.460;19.034;2023-07-09T14:13:05;3.05;;;2.70;;
41799;SDS011;27468;47.460;19.034;2023-07-09T14:15:38;3.53;;;2.70;;
41799;SDS011;27468;47.460;19.034;2023-07-09T14:18:04;2.58;;;2.38;;
41799;SDS011;27468;47.460;19.034;2023-07-09T14:20:36;3.30;;;3.00;;
41799;SDS011;27468;47.460;19.034;2023-07-09T14:23:01;2.83;;;2.42;;
41799;SDS011;27468;47.460;19.034;2023-07-09T14:25:27;3.67;;;3.03;;
41799;SDS011;27468;47.460;19.034;2023-07-09T14:27:53;2.80;;;2.60;;
41799;SDS011;27468;47.460;19.034;2023-07-09T14:30:21;3.13;;;2.50;;
41799;SDS011;27468;47.460;19.034;2023-07-09T14:32:49;3.17;;;2.70;;
41799;SDS011;27468;47.460;19.034;2023-07-09T14:35:22;3.17;;;2.50;;
41799;SDS011;27468;47.460;19.034;2023-07-09T14:37:50;3.05;;;2.67;;
41799;SDS011;27468;47.460;19.034;2023-07-09T14:40:17;3.40;;;2.97;;
41799;SDS011;27468;47.460;19.034;2023-07-09T14:42:45;4.65;;;2.83;;
41799;SDS011;27468;47.460;19.034;2023-07-09T14:45:15;3.58;;;2.95;;
41799;SDS011;27468;47.460;19.034;2023-07-09T14:47:43;3.35;;;2.90;;
41799;SDS011;27468;47.460;19.034;2023-07-09T14:50:09;3.55;;;2.67;;
41799;SDS011;27468;47.460;19.034;2023-07-09T14:52:34;3.47;;;2.67;;
41799;SDS011;27468;47.460;19.034;2023-07-09T14:55:00;3.28;;;2.85;;
41799;SDS011;27468;47.460;19.034;2023-07-09T14:57:26;3.28;;;2.70;;
41799;SDS011;27468;47.460;19.034;2023-07-09T14:59:52;3.70;;;2.80;;
41799;SDS011;27468;47.460;19.034;2023-07-09T15:02:22;3.33;;;2.97;;
41799;SDS011;27468;47.460;19.034;2023-07-09T15:04:48;3.03;;;2.70;;
41799;SDS011;27468;47.460;19.034;2023-07-09T15:07:14;3.20;;;2.55;;
41799;SDS011;27468;47.460;19.034;2023-07-09T15:09:40;4.38;;;2.70;;
41799;SDS011;27468;47.460;19.034;2023-07-09T15:12:08;3.88;;;2.80;;
41799;SDS011;27468;47.460;19.034;2023-07-09T15:14:50;3.78;;;3.08;;
41799;SDS011;27468;47.460;19.034;2023-07-09T15:17:15;3.78;;;2.75;;
41799;SDS011;27468;47.460;19.034;2023-07-09T15:19:41;3.63;;;2.75;;
41799;SDS011;27468;47.460;19.034;2023-07-09T15:22:29;3.55;;;2.90;;
41799;SDS011;27468;47.460;19.034;2023-07-09T15:24:55;3.65;;;2.88;;
41799;SDS011;27468;47.460;19.034;2023-07-09T15:27:21;4.05;;;2.90;;